sensor_id;sensor_type;location;lat;lon;timestamp;temperature;humidity
9808;DHT22;4943;52.550;13.462;2022-08-25T00:01:30;22.40;99.90
9808;DHT22;4943;52.550;13.462;2022-08-25T00:03:59;22.30;99.90
9808;DHT22;4943;52.550;13.462;2022-08-25T00:06:29;22.30;99.90
9808;DHT22;4943;52.550;13.462;2022-08-25T00:08:58;22.30;99.90
9808;DHT22;4943;52.550;13.462;2022-08-25T00:11:29;22.30;99.90
9808;DHT22;4943;52.550;13.462;2022-08-25T00:13:59;22.20;99.90
9808;DHT22;4943;52.550;13.462;2022-08-25T00:16:28;22.20;99.90
9808;DHT22;4943;52.550;13.462;2022-08-25T00:18:59;22.20;99.90
9808;DHT22;4943;52.550;13.462;2022-08-25T00:21:28;22.20;99.90
9808;DHT22;4943;52.550;13.462;2022-08-25T00:24:00;22.10;99.90
9808;DHT22;4943;52.550;13.462;2022-08-25T00:26:29;22.10;99.90
9808;DHT22;4943;52.550;13.462;2022-08-25T00:28:57;22.10;99.90
9808;DHT22;4943;52.550;13.462;2022-08-25T00:31:28;22.10;99.90
9808;DHT22;4943;52.550;13.462;2022-08-25T00:34:06;22.10;99.90
9808;DHT22;4943;52.550;13.462;2022-08-25T00:36:34;22.10;99.90
9808;DHT22;4943;52.550;13.462;2022-08-25T00:39:06;22.10;99.90
9808;DHT22;4943;52.550;13.462;2022-08-25T00:41:35;22.10;99.90
9808;DHT22;4943;52.550;13.462;2022-08-25T00:44:05;22.10;99.90
9808;DHT22;4943;52.550;13.462;2022-08-25T00:46:40;22.10;99.90
9808;DHT22;4943;52.550;13.462;2022-08-25T00:49:13;22.10;99.90
9808;DHT22;4943;52.550;13.462;2022-08-25T00:51:53;22.10;99.90
9808;DHT22;4943;52.550;13.462;2022-08-25T00:54:27;22.10;99.90
9808;DHT22;4943;52.550;13.462;2022-08-25T00:56:57;22.10;99.90
9808;DHT22;4943;52.550;13.462;2022-08-25T00:59:27;22.00;99.90
9808;DHT22;4943;52.550;13.462;2022-08-25T01:01:56;22.00;99.90
9808;DHT22;4943;52.550;13.462;2022-08-25T01:04:25;22.00;99.90
9808;DHT22;4943;52.550;13.462;2022-08-25T01:06:54;21.90;99.90
9808;DHT22;4943;52.550;13.462;2022-08-25T01:09:24;21.90;99.90
9808;DHT22;4943;52.550;13.462;2022-08-25T01:11:53;21.90;99.90
9808;DHT22;4943;52.550;13.462;2022-08-25T01:14:22;21.90;99.90
9808;DHT22;4943;52.550;13.462;2022-08-25T01:16:52;21.90;99.90
9808;DHT22;4943;52.550;13.462;2022-08-25T01:19:20;21.80;99.90
9808;DHT22;4943;52.550;13.462;2022-08-25T01:21:52;21.80;99.90
9808;DHT22;4943;52.550;13.462;2022-08-25T01:24:25;21.80;99.90
9808;DHT22;4943;52.550;13.462;2022-08-25T01:26:57;21.90;99.90
9808;DHT22;4943;52.550;13.462;2022-08-25T01:29:26;21.90;99.90
9808;DHT22;4943;52.550;13.462;2022-08-25T01:31:56;21.90;99.90
9808;DHT22;4943;52.550;13.462;2022-08-25T01:34:25;21.90;99.90
9808;DHT22;4943;52.550;13.462;2022-08-25T01:36:56;21.90;99.90
9808;DHT22;4943;52.550;13.462;2022-08-25T01:39:26;22.00;99.90
9808;DHT22;4943;52.550;13.462;2022-08-25T01:42:12;22.00;99.90
9808;DHT22;4943;52.550;13.462;2022-08-25T01:44:42;22.00;99.90
9808;DHT22;4943;52.550;13.462;2022-08-25T01:47:13;21.90;99.90
9808;DHT22;4943;52.550;13.462;2022-08-25T01:49:41;22.00;99.90
9808;DHT22;4943;52.550;13.462;2022-08-25T01:52:14;22.00;99.90
9808;DHT22;4943;52.550;13.462;2022-08-25T01:54:43;22.00;99.90
9808;DHT22;4943;52.550;13.462;2022-08-25T01:57:11;22.00;99.90
9808;DHT22;4943;52.550;13.462;2022-08-25T01:59:39;21.90;99.90
9808;DHT22;4943;52.550;13.462;2022-08-25T02:02:08;22.00;99.90
9808;DHT22;4943;52.550;13.462;2022-08-25T02:04:36;21.90;99.90
9808;DHT22;4943;52.550;13.462;2022-08-25T02:07:11;21.90;99.90
9808;DHT22;4943;52.550;13.462;2022-08-25T02:09:39;21.90;99.90
9808;DHT22;4943;52.550;13.462;2022-08-25T02:12:07;21.90;99.90
9808;DHT22;4943;52.550;13.462;2022-08-25T02:14:36;21.90;99.90
9808;DHT22;4943;52.550;13.462;2022-08-25T02:17:04;21.80;99.90
9808;DHT22;4943;52.550;13.462;2022-08-25T02:19:33;21.80;99.90
9808;DHT22;4943;52.550;13.462;2022-08-25T02:22:01;21.80;99.90
9808;DHT22;4943;52.550;13.462;2022-08-25T02:24:31;21.80;99.90
9808;DHT22;4943;52.550;13.462;2022-08-25T02:26:59;21.80;99.90
9808;DHT22;4943;52.550;13.462;2022-08-25T02:29:29;21.80;99.90
9808;DHT22;4943;52.550;13.462;2022-08-25T02:31:57;21.80;99.90
9808;DHT22;4943;52.550;13.462;2022-08-25T02:34:26;21.80;99.90
9808;DHT22;4943;52.550;13.462;2022-08-25T02:36:54;21.80;99.90
9808;DHT22;4943;52.550;13.462;2022-08-25T02:39:22;21.70;99.90
9808;DHT22;4943;52.550;13.462;2022-08-25T02:41:52;21.70;99.90
9808;DHT22;4943;52.550;13.462;2022-08-25T02:44:20;21.60;99.90
9808;DHT22;4943;52.550;13.462;2022-08-25T02:46:48;21.60;99.90
9808;DHT22;4943;52.550;13.462;2022-08-25T02:49:16;21.60;99.90
9808;DHT22;4943;52.550;13.462;2022-08-25T02:51:44;21.60;99.90
9808;DHT22;4943;52.550;13.462;2022-08-25T02:54:13;21.60;99.90
9808;DHT22;4943;52.550;13.462;2022-08-25T02:56:41;21.60;99.90
9808;DHT22;4943;52.550;13.462;2022-08-25T02:59:11;21.60;99.90
9808;DHT22;4943;52.550;13.462;2022-08-25T03:01:40;21.60;99.90
9808;DHT22;4943;52.550;13.462;2022-08-25T03:04:08;21.60;99.90
9808;DHT22;4943;52.550;13.462;2022-08-25T03:06:36;21.50;99.90
9808;DHT22;4943;52.550;13.462;2022-08-25T03:09:05;21.50;99.90
9808;DHT22;4943;52.550;13.462;2022-08-25T03:11:33;21.50;99.90
9808;DHT22;4943;52.550;13.462;2022-08-25T03:14:04;21.50;99.90
9808;DHT22;4943;52.550;13.462;2022-08-25T03:16:34;21.40;99.90
9808;DHT22;4943;52.550;13.462;2022-08-25T03:19:02;21.50;99.90
9808;DHT22;4943;52.550;13.462;2022-08-25T03:21:31;21.50;99.90
9808;DHT22;4943;52.550;13.462;2022-08-25T03:24:00;21.40;99.90
9808;DHT22;4943;52.550;13.462;2022-08-25T03:26:28;21.40;99.90
9808;DHT22;4943;52.550;13.462;2022-08-25T03:29:14;21.40;99.90
9808;DHT22;4943;52.550;13.462;2022-08-25T03:31:44;21.30;99.90
9808;DHT22;4943;52.550;13.462;2022-08-25T03:34:14;21.30;99.90
9808;DHT22;4943;52.550;13.462;2022-08-25T03:36:43;21.20;99.90
9808;DHT22;4943;52.550;13.462;2022-08-25T03:39:12;21.20;99.90
9808;DHT22;4943;52.550;13.462;2022-08-25T03:41:41;21.10;99.90
9808;DHT22;4943;52.550;13.462;2022-08-25T03:44:09;21.10;99.90
9808;DHT22;4943;52.550;13.462;2022-08-25T03:46:40;21.00;99.90
9808;DHT22;4943;52.550;13.462;2022-08-25T03:49:12;20.90;99.90
9808;DHT22;4943;52.550;13.462;2022-08-25T03:51:43;20.90;99.90
9808;DHT22;4943;52.550;13.462;2022-08-25T03:54:14;20.90;99.90
9808;DHT22;4943;52.550;13.462;2022-08-25T03:56:43;20.90;99.90
9808;DHT22;4943;52.550;13.462;2022-08-25T03:59:11;20.90;99.90
9808;DHT22;4943;52.550;13.462;2022-08-25T04:01:41;21.00;99.90
9808;DHT22;4943;52.550;13.462;2022-08-25T04:04:12;21.10;99.90
9808;DHT22;4943;52.550;13.462;2022-08-25T04:06:42;21.10;99.90
9808;DHT22;4943;52.550;13.462;2022-08-25T04:09:11;21.10;99.90
9808;DHT22;4943;52.550;13.462;2022-08-25T04:11:39;21.10;99.90
9808;DHT22;4943;52.550;13.462;2022-08-25T04:14:08;21.10;99.90
9808;DHT22;4943;52.550;13.462;2022-08-25T04:16:43;21.00;99.90
9808;DHT22;4943;52.550;13.462;2022-08-25T04:19:13;21.00;99.90
9808;DHT22;4943;52.550;13.462;2022-08-25T04:21:41;20.90;99.90
9808;DHT22;4943;52.550;13.462;2022-08-25T04:24:11;20.90;99.90
9808;DHT22;4943;52.550;13.462;2022-08-25T04:26:41;20.90;99.90
9808;DHT22;4943;52.550;13.462;2022-08-25T04:29:11;20.80;99.90
9808;DHT22;4943;52.550;13.462;2022-08-25T04:31:41;20.90;99.90
9808;DHT22;4943;52.550;13.462;2022-08-25T04:34:16;20.90;99.90
9808;DHT22;4943;52.550;13.462;2022-08-25T04:36:56;20.90;99.90
9808;DHT22;4943;52.550;13.462;2022-08-25T04:39:24;20.90;99.90
9808;DHT22;4943;52.550;13.462;2022-08-25T04:41:52;20.90;99.90
9808;DHT22;4943;52.550;13.462;2022-08-25T04:44:21;20.90;99.90
9808;DHT22;4943;52.550;13.462;2022-08-25T04:46:49;20.90;99.90
9808;DHT22;4943;52.550;13.462;2022-08-25T04:49:18;21.00;99.90
9808;DHT22;4943;52.550;13.462;2022-08-25T04:51:47;21.00;99.90
9808;DHT22;4943;52.550;13.462;2022-08-25T04:54:15;21.00;99.90
9808;DHT22;4943;52.550;13.462;2022-08-25T04:56:48;21.00;99.90
9808;DHT22;4943;52.550;13.462;2022-08-25T04:59:22;21.00;99.90
9808;DHT22;4943;52.550;13.462;2022-08-25T05:01:55;21.00;99.90
9808;DHT22;4943;52.550;13.462;2022-08-25T05:04:26;21.00;99.90
9808;DHT22;4943;52.550;13.462;2022-08-25T05:06:55;21.00;99.90
9808;DHT22;4943;52.550;13.462;2022-08-25T05:09:23;21.10;99.90
9808;DHT22;4943;52.550;13.462;2022-08-25T05:11:51;21.10;99.90
9808;DHT22;4943;52.550;13.462;2022-08-25T05:14:20;21.10;99.90
9808;DHT22;4943;52.550;13.462;2022-08-25T05:16:52;21.10;99.90
9808;DHT22;4943;52.550;13.462;2022-08-25T05:19:21;21.20;99.90
9808;DHT22;4943;52.550;13.462;2022-08-25T05:21:51;21.30;99.90
9808;DHT22;4943;52.550;13.462;2022-08-25T05:24:20;21.40;99.90
9808;DHT22;4943;52.550;13.462;2022-08-25T05:26:49;21.40;99.90
9808;DHT22;4943;52.550;13.462;2022-08-25T05:29:17;21.50;99.90
9808;DHT22;4943;52.550;13.462;2022-08-25T05:31:45;21.60;99.90
9808;DHT22;4943;52.550;13.462;2022-08-25T05:34:17;21.70;99.90
9808;DHT22;4943;52.550;13.462;2022-08-25T05:36:45;21.70;99.90
9808;DHT22;4943;52.550;13.462;2022-08-25T05:39:15;21.70;99.90
9808;DHT22;4943;52.550;13.462;2022-08-25T05:41:43;21.70;99.90
9808;DHT22;4943;52.550;13.462;2022-08-25T05:44:12;21.80;99.90
9808;DHT22;4943;52.550;13.462;2022-08-25T05:46:46;21.80;99.90
9808;DHT22;4943;52.550;13.462;2022-08-25T05:49:14;21.90;99.90
9808;DHT22;4943;52.550;13.462;2022-08-25T05:51:42;22.00;99.90
9808;DHT22;4943;52.550;13.462;2022-08-25T05:54:10;22.10;99.90
9808;DHT22;4943;52.550;13.462;2022-08-25T05:56:40;22.10;99.90
9808;DHT22;4943;52.550;13.462;2022-08-25T05:59:08;22.20;99.90
9808;DHT22;4943;52.550;13.462;2022-08-25T06:01:36;22.30;99.90
9808;DHT22;4943;52.550;13.462;2022-08-25T06:04:22;22.40;99.90
9808;DHT22;4943;52.550;13.462;2022-08-25T06:06:50;22.40;99.90
9808;DHT22;4943;52.550;13.462;2022-08-25T06:09:21;22.40;99.90
9808;DHT22;4943;52.550;13.462;2022-08-25T06:11:51;22.40;99.90
9808;DHT22;4943;52.550;13.462;2022-08-25T06:14:21;22.40;99.90
9808;DHT22;4943;52.550;13.462;2022-08-25T06:16:51;22.40;99.90
9808;DHT22;4943;52.550;13.462;2022-08-25T06:19:19;22.40;99.90
9808;DHT22;4943;52.550;13.462;2022-08-25T06:21:52;22.40;99.90
9808;DHT22;4943;52.550;13.462;2022-08-25T06:24:21;22.40;99.90
9808;DHT22;4943;52.550;13.462;2022-08-25T06:26:52;22.30;99.90
9808;DHT22;4943;52.550;13.462;2022-08-25T06:29:21;22.30;99.90
9808;DHT22;4943;52.550;13.462;2022-08-25T06:31:50;22.30;99.90
9808;DHT22;4943;52.550;13.462;2022-08-25T06:34:18;22.30;99.90
9808;DHT22;4943;52.550;13.462;2022-08-25T06:36:50;22.40;99.90
9808;DHT22;4943;52.550;13.462;2022-08-25T06:39:18;22.40;99.90
9808;DHT22;4943;52.550;13.462;2022-08-25T06:41:51;22.50;99.90
9808;DHT22;4943;52.550;13.462;2022-08-25T06:44:20;22.60;99.90
9808;DHT22;4943;52.550;13.462;2022-08-25T06:46:48;22.70;99.90
9808;DHT22;4943;52.550;13.462;2022-08-25T06:49:17;22.70;99.90
9808;DHT22;4943;52.550;13.462;2022-08-25T06:51:45;22.80;99.90
9808;DHT22;4943;52.550;13.462;2022-08-25T06:54:13;22.80;99.90
9808;DHT22;4943;52.550;13.462;2022-08-25T06:56:42;22.80;99.90
9808;DHT22;4943;52.550;13.462;2022-08-25T06:59:11;22.90;99.90
9808;DHT22;4943;52.550;13.462;2022-08-25T07:01:39;22.80;99.90
9808;DHT22;4943;52.550;13.462;2022-08-25T07:04:08;22.80;99.90
9808;DHT22;4943;52.550;13.462;2022-08-25T07:06:39;22.90;99.90
9808;DHT22;4943;52.550;13.462;2022-08-25T07:09:09;23.00;99.90
9808;DHT22;4943;52.550;13.462;2022-08-25T07:11:38;23.10;99.90
9808;DHT22;4943;52.550;13.462;2022-08-25T07:14:09;23.30;99.90
9808;DHT22;4943;52.550;13.462;2022-08-25T07:16:39;23.40;99.90
9808;DHT22;4943;52.550;13.462;2022-08-25T07:19:15;23.40;99.90
9808;DHT22;4943;52.550;13.462;2022-08-25T07:21:50;23.50;99.90
9808;DHT22;4943;52.550;13.462;2022-08-25T07:24:18;23.60;99.90
9808;DHT22;4943;52.550;13.462;2022-08-25T07:26:47;23.60;99.90
9808;DHT22;4943;52.550;13.462;2022-08-25T07:29:17;23.60;99.90
9808;DHT22;4943;52.550;13.462;2022-08-25T07:32:00;23.70;99.90
9808;DHT22;4943;52.550;13.462;2022-08-25T07:34:28;23.80;99.90
9808;DHT22;4943;52.550;13.462;2022-08-25T07:37:19;23.80;99.90
9808;DHT22;4943;52.550;13.462;2022-08-25T07:40:09;23.70;99.90
9808;DHT22;4943;52.550;13.462;2022-08-25T07:42:38;23.80;99.90
9808;DHT22;4943;52.550;13.462;2022-08-25T07:45:07;23.80;99.90
9808;DHT22;4943;52.550;13.462;2022-08-25T07:47:38;23.80;99.90
9808;DHT22;4943;52.550;13.462;2022-08-25T07:50:08;23.80;99.90
9808;DHT22;4943;52.550;13.462;2022-08-25T07:52:37;23.80;99.90
9808;DHT22;4943;52.550;13.462;2022-08-25T07:55:08;23.90;99.90
9808;DHT22;4943;52.550;13.462;2022-08-25T07:57:38;24.00;99.90
9808;DHT22;4943;52.550;13.462;2022-08-25T08:00:07;24.10;99.90
9808;DHT22;4943;52.550;13.462;2022-08-25T08:02:38;24.20;99.90
9808;DHT22;4943;52.550;13.462;2022-08-25T08:05:08;24.30;99.90
9808;DHT22;4943;52.550;13.462;2022-08-25T08:07:37;24.30;99.90
9808;DHT22;4943;52.550;13.462;2022-08-25T08:10:12;24.40;99.90
9808;DHT22;4943;52.550;13.462;2022-08-25T08:13:00;24.50;99.90
9808;DHT22;4943;52.550;13.462;2022-08-25T08:15:29;24.50;99.90
9808;DHT22;4943;52.550;13.462;2022-08-25T08:17:58;24.60;99.90
9808;DHT22;4943;52.550;13.462;2022-08-25T08:20:29;24.60;99.90
9808;DHT22;4943;52.550;13.462;2022-08-25T08:23:09;24.60;99.90
9808;DHT22;4943;52.550;13.462;2022-08-25T08:25:37;24.60;99.90
9808;DHT22;4943;52.550;13.462;2022-08-25T08:28:06;24.70;99.90
9808;DHT22;4943;52.550;13.462;2022-08-25T08:30:36;24.80;99.90
9808;DHT22;4943;52.550;13.462;2022-08-25T08:33:06;24.80;99.90
9808;DHT22;4943;52.550;13.462;2022-08-25T08:35:37;24.90;99.90
9808;DHT22;4943;52.550;13.462;2022-08-25T08:38:06;25.00;99.90
9808;DHT22;4943;52.550;13.462;2022-08-25T08:40:50;25.00;99.90
9808;DHT22;4943;52.550;13.462;2022-08-25T08:43:41;25.00;99.90
9808;DHT22;4943;52.550;13.462;2022-08-25T08:46:10;25.00;99.90
9808;DHT22;4943;52.550;13.462;2022-08-25T08:48:51;25.00;99.90
9808;DHT22;4943;52.550;13.462;2022-08-25T08:51:25;25.00;99.90
9808;DHT22;4943;52.550;13.462;2022-08-25T08:54:04;25.10;99.90
9808;DHT22;4943;52.550;13.462;2022-08-25T08:56:46;25.20;99.90
9808;DHT22;4943;52.550;13.462;2022-08-25T08:59:18;25.30;99.90
9808;DHT22;4943;52.550;13.462;2022-08-25T09:01:48;25.50;99.90
9808;DHT22;4943;52.550;13.462;2022-08-25T09:04:27;25.60;99.90
9808;DHT22;4943;52.550;13.462;2022-08-25T09:07:02;25.60;99.90
9808;DHT22;4943;52.550;13.462;2022-08-25T09:09:33;25.50;99.90
9808;DHT22;4943;52.550;13.462;2022-08-25T09:12:10;25.50;99.90
9808;DHT22;4943;52.550;13.462;2022-08-25T09:14:51;25.40;99.90
9808;DHT22;4943;52.550;13.462;2022-08-25T09:17:33;25.40;99.90
9808;DHT22;4943;52.550;13.462;2022-08-25T09:20:22;25.40;99.90
9808;DHT22;4943;52.550;13.462;2022-08-25T09:23:02;25.40;99.90
9808;DHT22;4943;52.550;13.462;2022-08-25T09:25:39;25.50;99.90
9808;DHT22;4943;52.550;13.462;2022-08-25T09:28:24;25.60;99.90
9808;DHT22;4943;52.550;13.462;2022-08-25T09:30:58;25.60;99.90
9808;DHT22;4943;52.550;13.462;2022-08-25T09:33:29;25.60;99.90
9808;DHT22;4943;52.550;13.462;2022-08-25T09:36:04;25.70;99.90
9808;DHT22;4943;52.550;13.462;2022-08-25T09:38:35;25.70;99.90
9808;DHT22;4943;52.550;13.462;2022-08-25T09:41:05;25.80;99.90
9808;DHT22;4943;52.550;13.462;2022-08-25T09:43:35;25.90;99.90
9808;DHT22;4943;52.550;13.462;2022-08-25T09:46:10;26.00;99.90
9808;DHT22;4943;52.550;13.462;2022-08-25T09:48:44;26.10;99.90
9808;DHT22;4943;52.550;13.462;2022-08-25T09:51:27;26.30;99.90
9808;DHT22;4943;52.550;13.462;2022-08-25T09:54:17;26.30;99.90
9808;DHT22;4943;52.550;13.462;2022-08-25T09:56:53;26.20;99.90
9808;DHT22;4943;52.550;13.462;2022-08-25T09:59:24;26.10;99.90
9808;DHT22;4943;52.550;13.462;2022-08-25T10:02:03;26.10;99.90
9808;DHT22;4943;52.550;13.462;2022-08-25T10:04:34;26.10;99.90
9808;DHT22;4943;52.550;13.462;2022-08-25T10:07:22;26.10;99.90
9808;DHT22;4943;52.550;13.462;2022-08-25T10:09:53;26.10;99.90
9808;DHT22;4943;52.550;13.462;2022-08-25T10:12:29;26.10;99.90
9808;DHT22;4943;52.550;13.462;2022-08-25T10:15:15;26.00;99.90
9808;DHT22;4943;52.550;13.462;2022-08-25T10:17:57;26.00;99.90
9808;DHT22;4943;52.550;13.462;2022-08-25T10:21:00;25.90;99.90
9808;DHT22;4943;52.550;13.462;2022-08-25T10:23:32;25.90;99.90
9808;DHT22;4943;52.550;13.462;2022-08-25T10:26:07;25.90;99.90
9808;DHT22;4943;52.550;13.462;2022-08-25T10:28:41;26.00;99.90
9808;DHT22;4943;52.550;13.462;2022-08-25T10:31:19;26.10;99.90
9808;DHT22;4943;52.550;13.462;2022-08-25T10:34:00;26.30;99.90
9808;DHT22;4943;52.550;13.462;2022-08-25T10:36:35;26.50;99.90
9808;DHT22;4943;52.550;13.462;2022-08-25T10:39:16;26.80;99.90
9808;DHT22;4943;52.550;13.462;2022-08-25T10:42:10;27.10;99.90
9808;DHT22;4943;52.550;13.462;2022-08-25T10:44:50;27.20;99.90
9808;DHT22;4943;52.550;13.462;2022-08-25T10:48:09;27.30;99.90
9808;DHT22;4943;52.550;13.462;2022-08-25T10:50:42;27.50;99.90
9808;DHT22;4943;52.550;13.462;2022-08-25T10:53:24;27.60;99.90
9808;DHT22;4943;52.550;13.462;2022-08-25T10:56:03;27.50;99.90
9808;DHT22;4943;52.550;13.462;2022-08-25T10:58:54;27.60;99.90
9808;DHT22;4943;52.550;13.462;2022-08-25T11:01:36;27.80;99.90
9808;DHT22;4943;52.550;13.462;2022-08-25T11:04:13;27.80;99.90
9808;DHT22;4943;52.550;13.462;2022-08-25T11:06:46;27.80;99.90
9808;DHT22;4943;52.550;13.462;2022-08-25T11:09:24;27.80;99.90
9808;DHT22;4943;52.550;13.462;2022-08-25T11:11:59;27.80;99.90
9808;DHT22;4943;52.550;13.462;2022-08-25T11:14:32;27.60;99.90
9808;DHT22;4943;52.550;13.462;2022-08-25T11:17:08;27.50;99.90
9808;DHT22;4943;52.550;13.462;2022-08-25T11:19:39;27.40;99.90
9808;DHT22;4943;52.550;13.462;2022-08-25T11:22:14;27.40;99.90
9808;DHT22;4943;52.550;13.462;2022-08-25T11:24:57;27.30;99.90
9808;DHT22;4943;52.550;13.462;2022-08-25T11:27:37;27.30;99.90
9808;DHT22;4943;52.550;13.462;2022-08-25T11:30:12;27.40;99.90
9808;DHT22;4943;52.550;13.462;2022-08-25T11:32:46;27.50;99.90
9808;DHT22;4943;52.550;13.462;2022-08-25T11:35:18;27.50;99.90
9808;DHT22;4943;52.550;13.462;2022-08-25T11:38:01;27.50;99.90
9808;DHT22;4943;52.550;13.462;2022-08-25T11:40:42;27.60;99.90
9808;DHT22;4943;52.550;13.462;2022-08-25T11:43:31;27.70;99.90
9808;DHT22;4943;52.550;13.462;2022-08-25T11:46:20;27.80;99.90
9808;DHT22;4943;52.550;13.462;2022-08-25T11:49:02;28.00;99.90
9808;DHT22;4943;52.550;13.462;2022-08-25T11:51:41;28.20;99.90
9808;DHT22;4943;52.550;13.462;2022-08-25T11:54:17;28.20;99.90
9808;DHT22;4943;52.550;13.462;2022-08-25T11:56:57;28.20;99.90
9808;DHT22;4943;52.550;13.462;2022-08-25T12:00:03;28.10;99.90
9808;DHT22;4943;52.550;13.462;2022-08-25T12:02:34;28.00;99.90
9808;DHT22;4943;52.550;13.462;2022-08-25T12:05:05;27.90;99.90
9808;DHT22;4943;52.550;13.462;2022-08-25T12:07:58;28.00;99.90
9808;DHT22;4943;52.550;13.462;2022-08-25T12:10:57;28.10;99.90
9808;DHT22;4943;52.550;13.462;2022-08-25T12:13:41;28.30;99.90
9808;DHT22;4943;52.550;13.462;2022-08-25T12:16:40;28.30;99.90
9808;DHT22;4943;52.550;13.462;2022-08-25T12:19:27;28.30;99.90
9808;DHT22;4943;52.550;13.462;2022-08-25T12:24:49;28.20;99.90
9808;DHT22;4943;52.550;13.462;2022-08-25T12:27:23;28.30;99.90
9808;DHT22;4943;52.550;13.462;2022-08-25T12:29:57;28.50;99.90
9808;DHT22;4943;52.550;13.462;2022-08-25T12:32:49;28.60;99.90
9808;DHT22;4943;52.550;13.462;2022-08-25T12:35:26;28.60;99.90
9808;DHT22;4943;52.550;13.462;2022-08-25T12:38:04;28.70;99.90
9808;DHT22;4943;52.550;13.462;2022-08-25T12:40:35;28.80;99.90
9808;DHT22;4943;52.550;13.462;2022-08-25T12:43:11;28.70;99.90
9808;DHT22;4943;52.550;13.462;2022-08-25T12:45:46;28.70;99.90
9808;DHT22;4943;52.550;13.462;2022-08-25T12:48:42;28.70;99.90
9808;DHT22;4943;52.550;13.462;2022-08-25T12:51:21;28.80;99.90
9808;DHT22;4943;52.550;13.462;2022-08-25T12:53:51;28.80;99.90
9808;DHT22;4943;52.550;13.462;2022-08-25T12:56:25;28.80;99.90
9808;DHT22;4943;52.550;13.462;2022-08-25T12:59:10;28.70;99.90
9808;DHT22;4943;52.550;13.462;2022-08-25T13:01:57;28.60;99.90
9808;DHT22;4943;52.550;13.462;2022-08-25T13:05:00;28.50;99.90
9808;DHT22;4943;52.550;13.462;2022-08-25T13:07:42;28.40;99.90
9808;DHT22;4943;52.550;13.462;2022-08-25T13:10:19;28.30;99.90
9808;DHT22;4943;52.550;13.462;2022-08-25T13:12:58;28.20;99.90
9808;DHT22;4943;52.550;13.462;2022-08-25T13:15:35;28.20;99.90
9808;DHT22;4943;52.550;13.462;2022-08-25T13:18:19;28.20;99.90
9808;DHT22;4943;52.550;13.462;2022-08-25T13:20:52;28.20;99.90
9808;DHT22;4943;52.550;13.462;2022-08-25T13:23:27;28.30;99.90
9808;DHT22;4943;52.550;13.462;2022-08-25T13:25:56;28.50;99.90
9808;DHT22;4943;52.550;13.462;2022-08-25T13:28:28;28.70;99.90
9808;DHT22;4943;52.550;13.462;2022-08-25T13:30:59;28.80;99.90
9808;DHT22;4943;52.550;13.462;2022-08-25T13:33:28;28.90;99.90
9808;DHT22;4943;52.550;13.462;2022-08-25T13:36:00;29.10;99.90
9808;DHT22;4943;52.550;13.462;2022-08-25T13:38:47;29.10;99.90
9808;DHT22;4943;52.550;13.462;2022-08-25T13:41:18;29.10;99.90
9808;DHT22;4943;52.550;13.462;2022-08-25T13:43:55;29.00;99.90
9808;DHT22;4943;52.550;13.462;2022-08-25T13:46:28;29.00;99.90
9808;DHT22;4943;52.550;13.462;2022-08-25T13:49:05;29.10;99.90
9808;DHT22;4943;52.550;13.462;2022-08-25T13:51:37;29.30;99.90
9808;DHT22;4943;52.550;13.462;2022-08-25T13:54:23;29.40;99.90
9808;DHT22;4943;52.550;13.462;2022-08-25T13:56:52;29.30;99.90
9808;DHT22;4943;52.550;13.462;2022-08-25T13:59:24;29.10;99.90
9808;DHT22;4943;52.550;13.462;2022-08-25T14:01:54;29.00;99.90
9808;DHT22;4943;52.550;13.462;2022-08-25T14:04:28;28.90;99.90
9808;DHT22;4943;52.550;13.462;2022-08-25T14:07:14;28.80;99.90
9808;DHT22;4943;52.550;13.462;2022-08-25T14:09:47;28.60;99.90
9808;DHT22;4943;52.550;13.462;2022-08-25T14:12:31;28.60;99.90
9808;DHT22;4943;52.550;13.462;2022-08-25T14:15:03;28.70;99.90
9808;DHT22;4943;52.550;13.462;2022-08-25T14:17:32;28.90;99.90
9808;DHT22;4943;52.550;13.462;2022-08-25T14:20:18;29.10;99.90
9808;DHT22;4943;52.550;13.462;2022-08-25T14:22:53;29.10;99.90
9808;DHT22;4943;52.550;13.462;2022-08-25T14:25:24;29.10;99.90
9808;DHT22;4943;52.550;13.462;2022-08-25T14:27:56;29.20;99.90
9808;DHT22;4943;52.550;13.462;2022-08-25T14:30:38;29.20;99.90
9808;DHT22;4943;52.550;13.462;2022-08-25T14:33:12;29.10;99.90
9808;DHT22;4943;52.550;13.462;2022-08-25T14:35:42;29.10;99.90
9808;DHT22;4943;52.550;13.462;2022-08-25T14:38:15;29.20;99.90
9808;DHT22;4943;52.550;13.462;2022-08-25T14:40:46;29.20;99.90
9808;DHT22;4943;52.550;13.462;2022-08-25T14:43:16;29.20;99.90
9808;DHT22;4943;52.550;13.462;2022-08-25T14:45:50;29.10;99.90
9808;DHT22;4943;52.550;13.462;2022-08-25T14:48:23;29.10;99.90
9808;DHT22;4943;52.550;13.462;2022-08-25T14:50:52;29.10;99.90
9808;DHT22;4943;52.550;13.462;2022-08-25T14:53:23;29.00;99.90
9808;DHT22;4943;52.550;13.462;2022-08-25T14:55:51;29.10;99.90
9808;DHT22;4943;52.550;13.462;2022-08-25T14:58:25;29.10;99.90
9808;DHT22;4943;52.550;13.462;2022-08-25T15:01:00;29.10;99.90
9808;DHT22;4943;52.550;13.462;2022-08-25T15:03:35;29.20;99.90
9808;DHT22;4943;52.550;13.462;2022-08-25T15:06:05;29.30;99.90
9808;DHT22;4943;52.550;13.462;2022-08-25T15:08:38;29.30;99.90
9808;DHT22;4943;52.550;13.462;2022-08-25T15:11:25;29.40;99.90
9808;DHT22;4943;52.550;13.462;2022-08-25T15:13:54;29.40;99.90
9808;DHT22;4943;52.550;13.462;2022-08-25T15:16:25;29.30;99.90
9808;DHT22;4943;52.550;13.462;2022-08-25T15:19:01;29.30;99.90
9808;DHT22;4943;52.550;13.462;2022-08-25T15:21:32;29.20;99.90
9808;DHT22;4943;52.550;13.462;2022-08-25T15:24:03;29.20;99.90
9808;DHT22;4943;52.550;13.462;2022-08-25T15:26:34;29.20;99.90
9808;DHT22;4943;52.550;13.462;2022-08-25T15:29:06;29.20;99.90
9808;DHT22;4943;52.550;13.462;2022-08-25T15:31:35;29.30;99.90
9808;DHT22;4943;52.550;13.462;2022-08-25T15:34:04;29.40;99.90
9808;DHT22;4943;52.550;13.462;2022-08-25T15:36:38;29.50;99.90
9808;DHT22;4943;52.550;13.462;2022-08-25T15:39:09;29.40;99.90
9808;DHT22;4943;52.550;13.462;2022-08-25T15:41:38;29.30;99.90
9808;DHT22;4943;52.550;13.462;2022-08-25T15:44:08;29.30;99.90
9808;DHT22;4943;52.550;13.462;2022-08-25T15:46:40;29.20;99.90
9808;DHT22;4943;52.550;13.462;2022-08-25T15:49:16;29.20;99.90
9808;DHT22;4943;52.550;13.462;2022-08-25T15:51:46;29.30;99.90
9808;DHT22;4943;52.550;13.462;2022-08-25T15:54:16;29.40;99.90
9808;DHT22;4943;52.550;13.462;2022-08-25T15:56:44;29.60;99.90
9808;DHT22;4943;52.550;13.462;2022-08-25T15:59:13;29.70;99.90
9808;DHT22;4943;52.550;13.462;2022-08-25T16:01:41;29.80;99.90
9808;DHT22;4943;52.550;13.462;2022-08-25T16:04:12;29.90;99.90
9808;DHT22;4943;52.550;13.462;2022-08-25T16:06:40;30.10;99.90
9808;DHT22;4943;52.550;13.462;2022-08-25T16:09:08;30.20;99.90
9808;DHT22;4943;52.550;13.462;2022-08-25T16:11:38;30.30;99.90
9808;DHT22;4943;52.550;13.462;2022-08-25T16:14:09;30.40;99.90
9808;DHT22;4943;52.550;13.462;2022-08-25T16:16:39;30.50;99.90
9808;DHT22;4943;52.550;13.462;2022-08-25T16:19:08;30.50;99.90
9808;DHT22;4943;52.550;13.462;2022-08-25T16:21:36;30.50;99.90
9808;DHT22;4943;52.550;13.462;2022-08-25T16:24:13;30.50;99.90
9808;DHT22;4943;52.550;13.462;2022-08-25T16:26:43;30.40;99.90